Terminal Aerodrome Forecast
Issued by NWS Sioux Falls, SD

Home | Current Version | Previous Version | Graphics & Text | Print | Product List | Glossary On
Versions: 1 2 3 4 5 6 7 8 9 10 11 12 13 14 15 16
000
FTUS43 KFSD 022320
TAFHON
TAF
KHON 022320Z 0300/0324 32004KT P6SM OVC025
      TEMPO 0300/0302 OVC018
     FM031200 17006KT P6SM BKN070
     FM031600 16012KT P6SM BKN035
     FM032100 16011KT P6SM BKN025=

USA.gov is the U.S. government's official web portal to all federal, state and local government web resources and services.